Time;durP1;ratioP1;P1;durP2;ratioP2;P2;SDS_P1;SDS_P2;PMS_P1;PMS_P2;Temp;Humidity;BMP_temperature;BMP_pressure;BME280_temperature;BME280_humidity;BME280_pressure;Samples;Min_cycle;Max_cycle;Signal;HPM_P1;HPM_P2
2022/01/16 00:04:29;;;;;;;13.73;9.90;;;3.50;99.90;;;;;;5033007;28;20560;-83
2022/01/16 00:06:55;;;;;;;15.33;11.60;;;3.50;99.90;;;;;;5032952;28;20557;-82
2022/01/16 00:09:20;;;;;;;15.13;10.47;;;3.50;99.90;;;;;;5033402;28;20174;-81
2022/01/16 00:11:46;;;;;;;18.97;10.27;;;3.40;99.90;;;;;;5015403;28;20652;-82
2022/01/16 00:14:12;;;;;;;16.73;9.40;;;3.40;99.90;;;;;;5032756;28;20638;-82
2022/01/16 00:16:39;;;;;;;14.23;10.47;;;3.30;99.90;;;;;;5033369;28;20220;-82
2022/01/16 00:19:05;;;;;;;16.40;9.90;;;3.30;99.90;;;;;;5033775;28;20309;-81
2022/01/16 00:21:41;;;;;;;14.00;8.07;;;3.30;99.90;;;;;;5033360;28;20413;-87
2022/01/16 00:24:08;;;;;;;13.13;9.03;;;3.30;99.90;;;;;;5033181;28;20217;-89
2022/01/16 00:26:35;;;;;;;17.07;10.33;;;3.20;99.90;;;;;;5033195;28;20542;-84
2022/01/16 00:29:02;;;;;;;15.33;8.30;;;3.20;99.90;;;;;;5032995;28;20426;-88
2022/01/16 00:31:27;;;;;;;19.47;9.87;;;3.10;99.90;;;;;;5033450;28;20417;-89
2022/01/16 00:33:53;;;;;;;16.77;10.30;;;3.20;99.90;;;;;;5033629;28;20485;-87
2022/01/16 00:36:20;;;;;;;16.13;9.63;;;3.10;99.90;;;;;;5021230;28;20225;-82
2022/01/16 00:38:47;;;;;;;16.70;9.77;;;3.10;99.90;;;;;;5073346;28;20173;-90
2022/01/16 00:41:14;;;;;;;14.33;10.20;;;3.10;99.90;;;;;;5073206;28;20424;-86
2022/01/16 00:43:41;;;;;;;17.17;10.43;;;3.10;99.90;;;;;;5072863;28;20404;-89
2022/01/16 00:46:07;;;;;;;15.97;10.93;;;3.00;99.90;;;;;;5073151;28;20556;-90
2022/01/16 00:48:32;;;;;;;18.53;10.43;;;3.00;99.90;;;;;;5073297;28;20509;-82
2022/01/16 00:50:58;;;;;;;16.00;11.00;;;3.00;99.90;;;;;;5073269;28;20630;-86
2022/01/16 00:53:24;;;;;;;21.20;12.60;;;3.00;99.90;;;;;;5036584;28;20522;-83
2022/01/16 00:55:50;;;;;;;23.43;11.10;;;2.90;99.90;;;;;;5022935;28;20445;-88
2022/01/16 00:58:15;;;;;;;25.57;11.73;;;2.90;99.90;;;;;;5015973;28;20176;-84
2022/01/16 01:00:41;;;;;;;17.70;10.07;;;2.90;99.90;;;;;;5053394;28;20173;-83
2022/01/16 01:03:06;;;;;;;16.03;11.27;;;2.90;99.90;;;;;;5035523;28;20170;-87
2022/01/16 01:05:33;;;;;;;19.60;12.03;;;2.90;99.90;;;;;;5052779;28;20516;-83
2022/01/16 01:07:59;;;;;;;15.67;10.90;;;2.90;99.90;;;;;;5035348;28;20783;-87
2022/01/16 01:10:30;;;;;;;16.17;9.53;;;2.90;99.90;;;;;;5054158;28;20891;-89
2022/01/16 01:13:07;;;;;;;17.50;11.40;;;2.90;99.90;;;;;;5053038;28;20169;-89
2022/01/16 01:15:41;;;;;;;18.93;11.33;;;2.90;99.90;;;;;;5052708;28;20412;-89
2022/01/16 01:18:07;;;;;;;15.97;11.27;;;2.90;99.90;;;;;;5039842;28;20427;-91
2022/01/16 01:20:33;;;;;;;17.83;10.97;;;2.80;99.90;;;;;;5056733;28;20475;-91
2022/01/16 01:22:59;;;;;;;19.70;11.37;;;2.80;99.90;;;;;;5056537;28;20169;-84
2022/01/16 01:25:24;;;;;;;16.77;11.13;;;2.80;99.90;;;;;;5037804;28;20422;-83
2022/01/16 01:27:50;;;;;;;19.63;12.33;;;2.80;99.90;;;;;;5056553;28;20972;-89
2022/01/16 01:30:19;;;;;;;18.70;12.07;;;2.70;99.90;;;;;;5056982;28;20170;-83
2022/01/16 01:32:47;;;;;;;17.93;11.23;;;2.70;99.90;;;;;;5041554;28;20423;-89
2022/01/16 01:35:15;;;;;;;20.70;11.57;;;2.70;99.90;;;;;;5068398;28;20408;-88
2022/01/16 01:37:42;;;;;;;16.67;11.10;;;2.70;99.90;;;;;;5064247;28;20455;-89
2022/01/16 01:40:11;;;;;;;11.73;9.03;;;2.80;99.90;;;;;;5057424;28;20768;-89
2022/01/16 01:42:45;;;;;;;18.70;10.43;;;2.80;99.90;;;;;;5056466;28;20427;-89
2022/01/16 01:53:39;;;;;;;15.77;9.10;;;2.80;99.90;;;;;;5022871;28;20915;-89
2022/01/16 01:56:06;;;;;;;21.33;11.97;;;2.80;99.90;;;;;;5038808;28;20417;-90
2022/01/16 01:58:32;;;;;;;14.23;10.23;;;2.80;99.90;;;;;;5056280;28;20422;-90
2022/01/16 02:00:58;;;;;;;16.97;10.83;;;2.80;99.90;;;;;;5057707;28;20502;-88
2022/01/16 02:03:42;;;;;;;22.30;13.93;;;2.80;99.90;;;;;;5057444;28;20170;-90
2022/01/16 02:06:19;;;;;;;18.73;11.00;;;2.90;99.90;;;;;;5056663;28;20205;-88
2022/01/16 02:08:51;;;;;;;18.23;12.47;;;2.80;99.90;;;;;;5038121;28;20986;-91
2022/01/16 02:11:18;;;;;;;19.80;12.60;;;2.80;99.90;;;;;;5055878;28;20756;-90
2022/01/16 02:14:09;;;;;;;18.87;12.40;;;2.80;99.90;;;;;;5055489;28;20413;-90
2022/01/16 02:30:56;;;;;;;21.53;12.40;;;3.00;99.90;;;;;;5055696;28;20499;-88
2022/01/16 02:35:41;;;;;;;22.83;13.77;;;3.00;99.90;;;;;;5055557;28;20413;-88
2022/01/16 02:38:12;;;;;;;27.97;15.37;;;3.00;99.90;;;;;;5055281;28;20214;-88
2022/01/16 02:40:42;;;;;;;25.60;15.10;;;3.00;99.90;;;;;;5055485;28;20405;-89
2022/01/16 02:43:07;;;;;;;25.80;15.43;;;3.00;99.90;;;;;;5054953;28;20412;-83
2022/01/16 02:45:36;;;;;;;26.27;14.40;;;3.10;99.90;;;;;;5055320;28;20409;-90
2022/01/16 02:48:07;;;;;;;28.37;14.17;;;3.00;99.90;;;;;;5037712;28;20181;-87
2022/01/16 02:50:34;;;;;;;26.17;15.00;;;3.00;99.90;;;;;;5037265;28;20825;-88
2022/01/16 02:53:03;;;;;;;22.93;13.30;;;3.00;99.90;;;;;;5055138;28;20423;-93
2022/01/16 02:55:28;;;;;;;20.20;13.43;;;2.90;99.90;;;;;;5055102;28;20448;-90
2022/01/16 02:57:55;;;;;;;29.23;15.80;;;2.90;99.90;;;;;;5054918;28;20455;-89
2022/01/16 03:00:25;;;;;;;27.30;15.40;;;3.00;99.90;;;;;;5055089;28;20522;-89
2022/01/16 03:02:51;;;;;;;30.73;15.13;;;3.00;99.90;;;;;;5055261;28;20507;-89
2022/01/16 03:05:17;;;;;;;26.33;15.23;;;2.90;99.90;;;;;;5055235;28;20440;-89
2022/01/16 03:07:44;;;;;;;25.77;16.47;;;2.90;99.90;;;;;;5054985;28;20515;-89
2022/01/16 03:10:46;;;;;;;31.83;17.00;;;3.00;99.90;;;;;;5054923;28;20974;-89
2022/01/16 03:13:11;;;;;;;24.43;14.63;;;2.90;99.90;;;;;;5054686;28;20769;-88
2022/01/16 03:15:38;;;;;;;24.03;14.13;;;2.90;99.90;;;;;;5054965;28;20406;-90
2022/01/16 03:23:19;;;;;;;27.67;14.83;;;2.90;99.90;;;;;;5055030;28;20267;-89
2022/01/16 03:25:45;;;;;;;25.73;14.13;;;3.00;99.90;;;;;;5036762;28;20551;-89
2022/01/16 03:28:11;;;;;;;29.67;17.83;;;3.00;99.90;;;;;;5054233;28;20190;-87
2022/01/16 03:30:37;;;;;;;29.33;14.60;;;3.00;99.90;;;;;;5054911;28;20421;-83
2022/01/16 03:33:03;;;;;;;24.83;15.00;;;3.10;99.90;;;;;;5037292;28;20185;-90
2022/01/16 03:35:29;;;;;;;28.43;16.57;;;3.00;99.90;;;;;;5057734;28;20459;-91
2022/01/16 03:37:54;;;;;;;27.23;15.93;;;3.00;99.90;;;;;;5036710;28;20252;-90
2022/01/16 03:40:21;;;;;;;29.27;16.13;;;3.00;99.90;;;;;;5036404;28;20177;-89
2022/01/16 03:42:49;;;;;;;26.27;16.30;;;3.00;99.90;;;;;;5054211;28;20260;-92
2022/01/16 03:45:15;;;;;;;28.23;16.33;;;3.10;99.90;;;;;;5054504;28;20426;-88
2022/01/16 03:47:40;;;;;;;26.37;15.43;;;3.10;99.90;;;;;;5053932;28;20476;-87
2022/01/16 03:50:07;;;;;;;29.60;17.80;;;3.10;99.90;;;;;;5054251;28;20907;-87
2022/01/16 03:52:33;;;;;;;28.73;15.00;;;3.10;99.90;;;;;;5036286;28;20190;-91
2022/01/16 03:54:58;;;;;;;23.70;15.53;;;3.20;99.90;;;;;;5036498;28;20428;-92
2022/01/16 03:57:24;;;;;;;29.00;15.77;;;3.20;99.90;;;;;;5036088;28;20527;-84
2022/01/16 03:59:49;;;;;;;31.80;15.37;;;3.10;99.90;;;;;;5054201;28;20533;-89
2022/01/16 04:02:15;;;;;;;26.70;16.83;;;3.20;99.90;;;;;;5019908;28;20179;-84
2022/01/16 04:04:41;;;;;;;28.70;15.50;;;3.20;99.90;;;;;;5054083;28;20182;-90
2022/01/16 04:07:09;;;;;;;31.43;16.97;;;3.10;99.90;;;;;;5053854;28;20456;-89
2022/01/16 04:09:34;;;;;;;32.70;17.63;;;3.10;99.90;;;;;;5054235;28;20184;-92
2022/01/16 04:12:01;;;;;;;29.53;15.63;;;3.20;99.90;;;;;;5036291;28;20423;-90
2022/01/16 04:17:21;;;;;;;28.43;15.40;;;3.20;99.90;;;;;;5007825;28;20420;-87
2022/01/16 04:19:48;;;;;;;32.30;17.50;;;3.20;99.90;;;;;;5036599;28;20424;-91
2022/01/16 04:22:13;;;;;;;30.27;16.00;;;3.20;99.90;;;;;;5037047;28;20420;-91
2022/01/16 04:24:40;;;;;;;33.90;18.43;;;3.30;99.90;;;;;;5054531;28;20947;-92
2022/01/16 04:27:10;;;;;;;29.90;17.67;;;3.20;99.90;;;;;;5054203;28;20275;-86
2022/01/16 04:29:36;;;;;;;30.13;16.87;;;3.30;99.90;;;;;;5053781;28;20500;-91
2022/01/16 04:32:02;;;;;;;31.27;16.93;;;3.20;99.90;;;;;;5054249;28;20416;-89
2022/01/16 04:34:28;;;;;;;28.83;15.53;;;3.30;99.90;;;;;;5053926;28;20478;-90
2022/01/16 04:36:56;;;;;;;25.07;14.13;;;3.30;99.90;;;;;;5046023;28;20527;-89
2022/01/16 04:39:31;;;;;;;27.97;17.10;;;3.30;99.90;;;;;;5033903;28;20194;-92
2022/01/16 04:44:41;;;;;;;33.47;16.73;;;3.30;99.90;;;;;;5033790;28;20416;-82
2022/01/16 04:47:07;;;;;;;32.67;17.17;;;3.30;99.90;;;;;;5033351;28;20468;-90
2022/01/16 04:49:33;;;;;;;32.07;15.47;;;3.30;99.90;;;;;;5033260;28;20176;-91
2022/01/16 04:51:58;;;;;;;33.13;17.40;;;3.30;99.90;;;;;;5018185;28;20576;-85
2022/01/16 04:54:25;;;;;;;28.80;14.63;;;3.30;99.90;;;;;;5038020;28;20177;-82
2022/01/16 04:56:51;;;;;;;30.10;16.70;;;3.30;99.90;;;;;;5019106;28;20626;-83
2022/01/16 04:59:19;;;;;;;32.27;15.80;;;3.30;99.90;;;;;;5036380;28;20420;-91
2022/01/16 05:01:45;;;;;;;33.80;17.60;;;3.30;99.90;;;;;;5037836;28;20776;-83
2022/01/16 05:04:10;;;;;;;29.17;15.67;;;3.40;99.90;;;;;;5037655;28;20393;-83
2022/01/16 05:06:36;;;;;;;30.23;16.47;;;3.40;99.90;;;;;;5036891;28;20461;-84
2022/01/16 05:09:02;;;;;;;28.83;16.23;;;3.30;99.90;;;;;;5037269;28;20428;-83
2022/01/16 05:11:27;;;;;;;32.37;16.20;;;3.40;99.90;;;;;;5037698;28;20171;-84
2022/01/16 05:16:37;;;;;;;28.80;15.40;;;3.40;99.90;;;;;;5036400;28;20261;-84
2022/01/16 05:19:14;;;;;;;27.60;16.97;;;3.40;99.90;;;;;;5036831;28;20444;-83
2022/01/16 05:21:42;;;;;;;27.50;15.10;;;3.40;99.90;;;;;;5019482;28;20478;-82
2022/01/16 05:24:10;;;;;;;34.83;15.53;;;3.40;99.90;;;;;;5036841;28;20421;-83
2022/01/16 05:26:41;;;;;;;37.17;18.67;;;3.40;99.90;;;;;;5036647;28;20468;-83
2022/01/16 05:29:09;;;;;;;32.70;16.17;;;3.40;99.90;;;;;;5036889;28;20413;-93
2022/01/16 05:31:35;;;;;;;30.70;15.17;;;3.40;99.90;;;;;;5020088;28;20429;-91
2022/01/16 05:34:00;;;;;;;28.20;14.57;;;3.40;99.90;;;;;;5030671;28;20424;-82
2022/01/16 05:36:26;;;;;;;29.00;14.70;;;3.40;99.90;;;;;;5050044;28;20299;-82
2022/01/16 05:38:53;;;;;;;35.73;15.70;;;3.40;99.90;;;;;;5055758;28;20245;-82
2022/01/16 05:41:19;;;;;;;35.50;16.87;;;3.40;99.90;;;;;;5055090;28;20173;-92
2022/01/16 05:43:46;;;;;;;29.43;15.30;;;3.40;99.90;;;;;;5054721;28;20404;-82
2022/01/16 05:46:15;;;;;;;29.67;15.23;;;3.40;99.90;;;;;;5055333;28;20452;-91
2022/01/16 05:48:41;;;;;;;35.50;15.53;;;3.40;99.90;;;;;;5055293;28;20443;-82
2022/01/16 05:51:08;;;;;;;35.67;17.70;;;3.40;99.90;;;;;;5055860;28;20494;-82
2022/01/16 05:53:34;;;;;;;31.47;16.27;;;3.40;99.90;;;;;;5057683;28;20412;-92
2022/01/16 05:56:00;;;;;;;24.60;13.90;;;3.40;99.90;;;;;;5058516;28;20416;-91
2022/01/16 05:58:25;;;;;;;28.97;14.37;;;3.30;99.90;;;;;;5057468;28;20165;-89
2022/01/16 06:00:51;;;;;;;26.10;14.43;;;3.30;99.90;;;;;;5057134;28;20258;-90
2022/01/16 06:03:16;;;;;;;28.17;13.07;;;3.30;99.90;;;;;;5057311;28;20193;-86
2022/01/16 06:05:42;;;;;;;28.17;14.40;;;3.30;99.90;;;;;;5057701;28;20161;-91
2022/01/16 06:08:11;;;;;;;28.30;14.30;;;3.30;99.90;;;;;;5057366;28;20838;-87
2022/01/16 06:10:37;;;;;;;28.37;14.70;;;3.30;99.90;;;;;;5057286;28;20165;-92
2022/01/16 06:13:04;;;;;;;28.23;13.40;;;3.30;99.90;;;;;;5056714;28;20417;-90
2022/01/16 06:15:30;;;;;;;27.37;14.63;;;3.30;99.90;;;;;;5039916;28;20177;-92
2022/01/16 06:17:55;;;;;;;26.40;12.97;;;3.30;99.90;;;;;;5057230;28;20413;-89
2022/01/16 06:20:21;;;;;;;31.63;16.10;;;3.30;99.90;;;;;;5056561;28;20633;-92
2022/01/16 06:22:46;;;;;;;27.47;13.67;;;3.30;99.90;;;;;;5055972;28;20182;-92
2022/01/16 06:25:12;;;;;;;28.53;15.20;;;3.30;99.90;;;;;;5055883;28;20249;-88
2022/01/16 06:27:39;;;;;;;32.03;16.13;;;3.30;99.90;;;;;;5055671;28;20216;-91
2022/01/16 06:30:06;;;;;;;28.37;13.90;;;3.30;99.90;;;;;;5040380;28;20437;-90
2022/01/16 06:32:32;;;;;;;25.47;11.57;;;3.30;99.90;;;;;;5056160;28;20414;-91
2022/01/16 06:34:58;;;;;;;28.50;14.33;;;3.30;99.90;;;;;;5057107;28;20466;-88
2022/01/16 06:37:23;;;;;;;31.37;13.50;;;3.30;99.90;;;;;;5022569;28;1005630;-90
2022/01/16 06:39:49;;;;;;;32.43;16.30;;;3.30;99.90;;;;;;5057130;28;20239;-91
2022/01/16 06:42:14;;;;;;;29.50;14.70;;;3.30;99.90;;;;;;5055980;28;20642;-91
2022/01/16 06:44:40;;;;;;;32.03;15.53;;;3.30;99.90;;;;;;5057786;28;20287;-88
2022/01/16 06:47:06;;;;;;;35.97;16.87;;;3.30;99.90;;;;;;5079170;28;20215;-85
2022/01/16 06:49:31;;;;;;;40.80;16.90;;;3.30;99.90;;;;;;5060831;28;20466;-86
2022/01/16 06:51:57;;;;;;;34.13;16.70;;;3.40;99.90;;;;;;5074110;28;20231;-90
2022/01/16 06:54:22;;;;;;;31.73;15.70;;;3.40;99.90;;;;;;5062086;28;20170;-91
2022/01/16 06:56:48;;;;;;;37.47;16.53;;;3.40;99.90;;;;;;5038411;28;20697;-91
2022/01/16 06:59:13;;;;;;;36.67;16.33;;;3.40;99.90;;;;;;5055374;28;20169;-90
2022/01/16 07:01:41;;;;;;;39.63;16.77;;;3.40;99.90;;;;;;5038159;28;20604;-90
2022/01/16 07:04:06;;;;;;;38.07;18.47;;;3.40;99.90;;;;;;5038003;28;20178;-90
2022/01/16 07:06:32;;;;;;;33.00;17.20;;;3.40;99.90;;;;;;5055616;28;21000;-90
2022/01/16 07:08:57;;;;;;;34.47;17.00;;;3.40;99.90;;;;;;5037820;28;20185;-90
2022/01/16 07:11:23;;;;;;;27.43;14.90;;;3.50;99.90;;;;;;5037954;28;20178;-90
2022/01/16 07:13:48;;;;;;;43.27;18.80;;;3.40;99.90;;;;;;5054673;28;20264;-90
2022/01/16 07:16:14;;;;;;;42.73;18.13;;;3.40;99.90;;;;;;5037807;28;20746;-89
2022/01/16 07:18:40;;;;;;;43.83;18.63;;;3.50;99.90;;;;;;5055634;28;20695;-89
2022/01/16 07:21:13;;;;;;;39.70;20.57;;;3.50;99.90;;;;;;5055872;28;20170;-90
2022/01/16 07:23:43;;;;;;;42.87;21.97;;;3.40;99.90;;;;;;5057613;28;20197;-86
2022/01/16 07:26:09;;;;;;;48.43;20.50;;;3.40;99.90;;;;;;5060345;28;20954;-82
2022/01/16 07:28:35;;;;;;;43.27;19.23;;;3.50;99.90;;;;;;5037576;28;20429;-81
2022/01/16 07:31:01;;;;;;;45.53;23.17;;;3.40;99.90;;;;;;5054928;28;20180;-87
2022/01/16 07:33:40;;;;;;;43.50;20.77;;;3.40;99.90;;;;;;5054888;28;20172;-91
2022/01/16 07:36:05;;;;;;;43.27;18.53;;;3.40;99.90;;;;;;5054619;28;20473;-91
2022/01/16 07:38:31;;;;;;;45.60;19.83;;;3.40;99.90;;;;;;5037350;28;20434;-90
2022/01/16 07:40:57;;;;;;;47.87;22.13;;;3.50;99.90;;;;;;5055508;28;20595;-91
2022/01/16 07:43:23;;;;;;;45.77;22.50;;;3.50;99.90;;;;;;5054620;28;20535;-91
2022/01/16 07:45:49;;;;;;;48.57;23.17;;;3.50;99.90;;;;;;5054738;28;20174;-90
2022/01/16 07:48:14;;;;;;;49.10;23.57;;;3.50;99.90;;;;;;5054920;28;20419;-90
2022/01/16 07:50:40;;;;;;;50.57;23.40;;;3.40;99.90;;;;;;5054847;28;20752;-89
2022/01/16 07:53:06;;;;;;;48.60;22.90;;;3.40;99.90;;;;;;5036617;28;20174;-89
2022/01/16 07:55:32;;;;;;;54.90;25.50;;;3.40;99.90;;;;;;5054565;28;20198;-90
2022/01/16 07:57:58;;;;;;;45.83;25.37;;;3.50;99.90;;;;;;5054164;28;20423;-91
2022/01/16 08:00:25;;;;;;;47.63;23.77;;;3.50;99.90;;;;;;5054458;28;20498;-90
2022/01/16 08:02:52;;;;;;;54.23;23.80;;;3.50;99.90;;;;;;5054110;28;20415;-90
2022/01/16 08:05:19;;;;;;;52.90;24.23;;;3.50;99.90;;;;;;5054298;28;20923;-90
2022/01/16 08:07:48;;;;;;;49.30;23.10;;;3.50;99.90;;;;;;5054103;28;20973;-89
2022/01/16 08:10:16;;;;;;;54.07;23.67;;;3.50;99.90;;;;;;5054096;28;20546;-90
2022/01/16 08:12:42;;;;;;;43.53;20.67;;;3.50;99.90;;;;;;5053793;28;20748;-90
2022/01/16 08:15:08;;;;;;;51.53;21.37;;;3.50;99.90;;;;;;5036311;28;20412;-89
2022/01/16 08:17:36;;;;;;;44.13;21.77;;;3.50;99.90;;;;;;5053874;28;20169;-89
2022/01/16 08:20:05;;;;;;;44.53;23.03;;;3.50;99.90;;;;;;5053818;28;20483;-90
2022/01/16 08:22:31;;;;;;;44.87;20.27;;;3.50;99.90;;;;;;5054678;28;20463;-93
2022/01/16 08:24:57;;;;;;;48.50;20.70;;;3.50;99.90;;;;;;5054319;28;20920;-92
2022/01/16 08:27:22;;;;;;;44.97;21.20;;;3.50;99.90;;;;;;5035762;28;20479;-91
2022/01/16 08:29:51;;;;;;;44.77;21.30;;;3.50;99.90;;;;;;5054397;28;20167;-92
2022/01/16 08:32:16;;;;;;;47.50;22.37;;;3.50;99.90;;;;;;5054297;28;20253;-92
2022/01/16 08:34:42;;;;;;;55.40;24.57;;;3.50;99.90;;;;;;5054023;28;20412;-89
2022/01/16 08:37:08;;;;;;;50.83;21.93;;;3.50;99.90;;;;;;5036648;28;20221;-92
2022/01/16 08:39:33;;;;;;;47.03;22.57;;;3.50;99.90;;;;;;5054322;28;20415;-91
2022/01/16 08:41:59;;;;;;;44.43;19.87;;;3.50;99.90;;;;;;5054573;28;20246;-90
2022/01/16 08:44:25;;;;;;;46.73;19.77;;;3.40;99.90;;;;;;5054846;28;20174;-92
2022/01/16 08:46:51;;;;;;;46.10;20.20;;;3.40;99.90;;;;;;5054416;28;20209;-88
2022/01/16 08:49:25;;;;;;;54.93;24.57;;;3.40;99.90;;;;;;5036923;28;20170;-93
2022/01/16 08:51:51;;;;;;;41.70;19.27;;;3.40;99.90;;;;;;5037999;28;20420;-92
2022/01/16 08:54:17;;;;;;;40.97;19.17;;;3.40;99.90;;;;;;5037931;28;20444;-92
2022/01/16 08:56:42;;;;;;;57.43;22.10;;;3.40;99.90;;;;;;5055273;28;20416;-91
2022/01/16 08:59:08;;;;;;;49.20;22.43;;;3.40;99.90;;;;;;5055347;28;20170;-92
2022/01/16 09:01:33;;;;;;;52.87;22.53;;;3.40;99.90;;;;;;5055470;28;20653;-91
2022/01/16 09:04:01;;;;;;;58.13;22.43;;;3.40;99.90;;;;;;5037866;28;20175;-92
2022/01/16 09:06:27;;;;;;;43.30;21.87;;;3.40;99.90;;;;;;5055329;28;20202;-90
2022/01/16 09:08:53;;;;;;;46.77;22.07;;;3.40;99.90;;;;;;5037666;28;20520;-93
2022/01/16 09:11:23;;;;;;;50.83;25.07;;;3.30;99.90;;;;;;5037162;28;20416;-89
2022/01/16 09:13:49;;;;;;;45.83;20.80;;;3.30;99.90;;;;;;5053553;28;20412;-89
2022/01/16 09:16:14;;;;;;;58.53;25.53;;;3.30;99.90;;;;;;5035691;28;20409;-88
2022/01/16 09:18:40;;;;;;;54.03;23.30;;;3.30;99.90;;;;;;5053301;28;20182;-87
2022/01/16 09:21:05;;;;;;;54.73;26.37;;;3.30;99.90;;;;;;5053777;28;20163;-89
2022/01/16 09:23:31;;;;;;;50.67;23.40;;;3.30;99.90;;;;;;5053253;28;20632;-89
2022/01/16 09:25:57;;;;;;;59.33;23.97;;;3.30;99.90;;;;;;5035877;28;20232;-90
2022/01/16 09:28:22;;;;;;;50.33;22.70;;;3.30;99.90;;;;;;5053676;28;20212;-87
2022/01/16 09:30:50;;;;;;;48.07;23.73;;;3.30;99.90;;;;;;5057778;28;20179;-90
2022/01/16 09:33:16;;;;;;;55.10;23.43;;;3.30;99.90;;;;;;5059427;28;20319;-88
2022/01/16 09:35:41;;;;;;;42.23;19.23;;;3.30;99.90;;;;;;5056561;28;20911;-88
2022/01/16 09:38:10;;;;;;;52.93;21.03;;;3.30;99.90;;;;;;5055321;28;20215;-90
2022/01/16 09:40:35;;;;;;;55.03;24.10;;;3.30;99.90;;;;;;5038854;28;20179;-89
2022/01/16 09:43:03;;;;;;;52.07;24.27;;;3.30;99.90;;;;;;5056850;28;20493;-89
2022/01/16 09:45:31;;;;;;;45.97;20.10;;;3.30;99.90;;;;;;5056575;28;20183;-89
2022/01/16 09:47:57;;;;;;;44.80;22.13;;;3.30;99.90;;;;;;5022560;28;20480;-89
2022/01/16 09:50:25;;;;;;;56.93;24.63;;;3.30;99.90;;;;;;5056844;28;20415;-89
2022/01/16 09:52:51;;;;;;;60.03;23.70;;;3.30;99.90;;;;;;5039018;28;20917;-89
2022/01/16 09:55:20;;;;;;;56.80;23.33;;;3.30;99.90;;;;;;5056764;28;20480;-90
2022/01/16 09:57:50;;;;;;;45.27;21.00;;;3.40;99.90;;;;;;5038979;28;20432;-90
2022/01/16 10:00:20;;;;;;;47.33;20.00;;;3.40;99.90;;;;;;5056712;28;20433;-89
2022/01/16 10:02:46;;;;;;;45.13;20.27;;;3.40;99.90;;;;;;5056603;28;20473;-89
2022/01/16 10:05:31;;;;;;;48.97;22.20;;;3.40;99.90;;;;;;5056854;28;20777;-88
2022/01/16 10:08:02;;;;;;;45.77;21.67;;;3.50;99.90;;;;;;5056082;28;20990;-82
2022/01/16 10:10:34;;;;;;;50.10;22.80;;;3.50;99.90;;;;;;5056244;28;20416;-84
2022/01/16 10:13:07;;;;;;;49.53;21.37;;;3.60;99.90;;;;;;5037138;28;20916;-83
2022/01/16 10:15:34;;;;;;;49.27;22.43;;;3.70;99.90;;;;;;5055175;28;20438;-84
2022/01/16 10:18:03;;;;;;;54.90;24.70;;;3.60;99.90;;;;;;5055241;28;20443;-84
2022/01/16 10:20:38;;;;;;;45.67;22.70;;;3.60;99.90;;;;;;5055060;28;20964;-84
2022/01/16 10:23:15;;;;;;;53.33;26.57;;;3.60;99.90;;;;;;5055243;28;20762;-82
2022/01/16 10:25:45;;;;;;;57.60;25.70;;;3.60;99.90;;;;;;5054691;28;20768;-88
2022/01/16 10:28:22;;;;;;;50.20;24.20;;;3.70;99.90;;;;;;5054553;28;20515;-83
2022/01/16 10:30:50;;;;;;;59.17;22.17;;;3.70;99.90;;;;;;5054639;28;20408;-83
2022/01/16 10:33:20;;;;;;;55.23;23.70;;;3.70;99.90;;;;;;5055043;28;20426;-82
2022/01/16 10:35:50;;;;;;;47.73;20.90;;;3.70;99.90;;;;;;5054795;28;20410;-87
2022/01/16 10:38:30;;;;;;;61.27;25.43;;;3.70;99.90;;;;;;5054383;28;20510;-85
2022/01/16 10:40:58;;;;;;;57.90;22.93;;;3.70;99.90;;;;;;5054342;28;20466;-84
2022/01/16 10:43:41;;;;;;;49.30;22.50;;;3.70;99.90;;;;;;5036378;28;20537;-84
2022/01/16 10:46:08;;;;;;;47.93;19.70;;;3.70;99.90;;;;;;5054341;28;20470;-84
2022/01/16 10:48:34;;;;;;;45.97;22.77;;;3.70;99.90;;;;;;5053589;28;20970;-85
2022/01/16 10:51:03;;;;;;;49.60;22.03;;;3.80;99.90;;;;;;5036439;28;20922;-84
2022/01/16 10:53:31;;;;;;;49.43;22.77;;;3.80;99.90;;;;;;5054160;28;20416;-84
2022/01/16 10:56:05;;;;;;;49.80;20.93;;;3.90;99.90;;;;;;5053794;28;20414;-83
2022/01/16 10:58:36;;;;;;;40.33;19.97;;;3.90;99.90;;;;;;5053703;28;20804;-83
2022/01/16 11:01:09;;;;;;;43.77;19.17;;;3.90;99.90;;;;;;5054055;28;20447;-82
2022/01/16 11:03:40;;;;;;;51.60;20.90;;;3.90;99.90;;;;;;5053865;28;20470;-83
2022/01/16 11:06:06;;;;;;;46.47;21.67;;;3.90;99.90;;;;;;5053997;28;20556;-83
2022/01/16 11:08:35;;;;;;;50.23;20.33;;;4.00;99.90;;;;;;5053830;28;20927;-84
2022/01/16 11:11:01;;;;;;;45.03;20.67;;;4.00;99.90;;;;;;5053852;28;20205;-83
2022/01/16 11:13:32;;;;;;;49.27;20.20;;;4.00;99.90;;;;;;5053326;28;20435;-83
2022/01/16 11:16:02;;;;;;;33.63;18.17;;;4.00;99.90;;;;;;5053794;28;20404;-84
2022/01/16 11:18:27;;;;;;;35.13;17.10;;;4.00;99.90;;;;;;5053615;28;20416;-84
2022/01/16 11:26:35;;;;;;;39.53;17.77;;;4.00;99.90;;;;;;5008522;28;20836;-83
2022/01/16 11:29:01;;;;;;;50.13;18.80;;;4.00;99.90;;;;;;5053191;28;20431;-83
2022/01/16 11:31:27;;;;;;;37.10;17.67;;;4.00;99.90;;;;;;5035609;28;20954;-84
2022/01/16 11:33:53;;;;;;;31.60;15.30;;;3.90;99.90;;;;;;5053211;28;20405;-84
2022/01/16 11:36:25;;;;;;;32.53;15.37;;;4.00;99.90;;;;;;5053101;28;20459;-83
2022/01/16 11:39:04;;;;;;;31.07;15.30;;;4.00;99.90;;;;;;5053346;28;20400;-82
2022/01/16 11:41:34;;;;;;;31.33;15.33;;;4.00;99.90;;;;;;5052689;28;20435;-84
2022/01/16 11:44:05;;;;;;;31.30;14.37;;;4.00;99.90;;;;;;5035073;28;20511;-83
2022/01/16 11:46:33;;;;;;;27.80;13.53;;;4.00;99.90;;;;;;5035054;28;20458;-83
2022/01/16 11:48:58;;;;;;;30.20;14.47;;;4.00;99.90;;;;;;5035215;28;20994;-84
2022/01/16 11:51:33;;;;;;;31.50;13.67;;;4.00;99.90;;;;;;5052926;28;20408;-84
2022/01/16 11:54:13;;;;;;;28.37;14.10;;;4.00;99.90;;;;;;5053028;28;20188;-83
2022/01/16 11:56:41;;;;;;;27.97;13.30;;;4.10;99.90;;;;;;5034664;28;20438;-85
2022/01/16 11:59:23;;;;;;;30.57;13.03;;;4.10;99.90;;;;;;5052880;28;20420;-85
2022/01/16 12:02:16;;;;;;;27.13;13.47;;;4.00;99.90;;;;;;5035372;28;20422;-83
2022/01/16 12:04:44;;;;;;;31.43;13.57;;;4.00;99.90;;;;;;5053040;28;20420;-84
2022/01/16 12:07:13;;;;;;;31.10;13.23;;;4.00;99.90;;;;;;5052714;28;20517;-83
2022/01/16 12:09:48;;;;;;;27.40;14.57;;;4.10;99.90;;;;;;5053134;28;20431;-84
2022/01/16 12:12:14;;;;;;;33.47;16.50;;;4.10;99.90;;;;;;5035112;28;20427;-83
2022/01/16 12:14:59;;;;;;;30.00;16.53;;;4.10;99.90;;;;;;5035131;28;20408;-83
2022/01/16 12:17:28;;;;;;;26.93;15.87;;;4.10;99.90;;;;;;5053081;28;20519;-82
2022/01/16 12:19:55;;;;;;;28.97;15.90;;;4.10;99.90;;;;;;5052756;28;20470;-84
2022/01/16 12:22:56;;;;;;;35.93;16.13;;;4.10;99.90;;;;;;5052758;28;20413;-81
2022/01/16 12:25:32;;;;;;;37.20;14.83;;;4.10;99.90;;;;;;5052704;28;20919;-84
2022/01/16 12:28:04;;;;;;;34.73;17.33;;;4.10;99.90;;;;;;5034336;28;20475;-84
2022/01/16 12:30:55;;;;;;;34.30;17.27;;;4.20;99.90;;;;;;5034686;28;20482;-83
2022/01/16 12:33:36;;;;;;;33.87;16.53;;;4.20;99.90;;;;;;5034511;28;20434;-84
2022/01/16 12:36:16;;;;;;;43.33;17.93;;;4.20;99.90;;;;;;5034658;28;20424;-83
2022/01/16 12:38:54;;;;;;;37.70;17.50;;;4.20;99.90;;;;;;5053011;28;20442;-82
2022/01/16 12:41:27;;;;;;;35.33;17.10;;;4.20;99.90;;;;;;5034779;28;20435;-84
2022/01/16 12:43:55;;;;;;;31.27;17.10;;;4.20;99.90;;;;;;5053236;28;20914;-83
2022/01/16 12:46:40;;;;;;;38.57;19.77;;;4.20;99.90;;;;;;5061657;28;20468;-83
2022/01/16 12:49:09;;;;;;;46.43;19.83;;;4.30;99.90;;;;;;5052684;28;20415;-82
2022/01/16 12:51:37;;;;;;;37.57;17.70;;;4.30;99.90;;;;;;5052314;28;20412;-82
2022/01/16 12:54:09;;;;;;;41.17;20.03;;;4.30;99.90;;;;;;5052380;28;20410;-82
2022/01/16 12:57:00;;;;;;;47.93;22.77;;;4.30;99.90;;;;;;5051893;28;20477;-81
2022/01/16 12:59:30;;;;;;;43.70;21.13;;;4.30;99.90;;;;;;5052385;28;20815;-83
2022/01/16 13:02:00;;;;;;;43.37;20.73;;;4.30;99.90;;;;;;5052122;28;20454;-83
2022/01/16 13:04:28;;;;;;;46.60;20.30;;;4.40;99.90;;;;;;5052157;28;20408;-82
2022/01/16 13:06:56;;;;;;;46.33;20.10;;;4.40;99.90;;;;;;5033863;28;20471;-83
2022/01/16 13:09:22;;;;;;;43.00;21.53;;;4.40;99.90;;;;;;5050271;28;20443;-84
2022/01/16 13:11:50;;;;;;;47.53;22.37;;;4.40;99.90;;;;;;5051878;28;20504;-82
2022/01/16 13:14:18;;;;;;;48.13;22.00;;;4.50;99.90;;;;;;5056296;28;20419;-84
2022/01/16 13:16:51;;;;;;;49.43;21.40;;;4.40;99.90;;;;;;5056297;28;20418;-82
2022/01/16 13:19:23;;;;;;;49.27;21.90;;;4.50;99.90;;;;;;5038117;28;20946;-83
2022/01/16 13:22:01;;;;;;;45.23;21.00;;;4.50;99.90;;;;;;5056479;28;20416;-83
2022/01/16 13:24:56;;;;;;;45.07;23.70;;;4.50;99.90;;;;;;5056227;28;20487;-84
2022/01/16 13:27:31;;;;;;;45.87;24.50;;;4.60;99.90;;;;;;5055733;28;20472;-84
2022/01/16 13:30:13;;;;;;;43.03;22.30;;;4.60;99.90;;;;;;5056604;28;20415;-85
2022/01/16 13:32:40;;;;;;;51.47;22.90;;;4.70;99.90;;;;;;5055976;28;20774;-84